createdAt,value
2022-12-11T00:01:40.115Z,3.13
2022-12-11T00:04:43.648Z,3.90
2022-12-11T00:07:47.103Z,3.55
2022-12-11T00:10:51.064Z,3.95
2022-12-11T00:13:54.491Z,3.80
2022-12-11T00:16:58.041Z,3.07
2022-12-11T00:20:01.563Z,3.00
2022-12-11T00:23:05.823Z,3.00
2022-12-11T00:26:12.746Z,3.13
2022-12-11T00:29:16.340Z,2.83
2022-12-11T00:32:19.678Z,3.00
2022-12-11T00:35:23.046Z,2.75
2022-12-11T00:38:26.648Z,2.97
2022-12-11T00:41:30.213Z,3.10
2022-12-11T00:44:33.827Z,2.83
2022-12-11T00:47:37.271Z,2.50
2022-12-11T00:50:41.178Z,2.83
2022-12-11T00:53:44.643Z,2.60
2022-12-11T00:56:47.951Z,2.00
2022-12-11T00:59:51.452Z,2.13
2022-12-11T01:02:54.913Z,2.30
2022-12-11T01:05:58.448Z,1.98
2022-12-11T01:09:20.539Z,1.92
2022-12-11T01:12:24.081Z,2.30
2022-12-11T01:15:30.031Z,1.67
2022-12-11T01:18:33.441Z,2.20
2022-12-11T01:21:36.923Z,2.22
2022-12-11T01:24:40.327Z,1.88
2022-12-11T01:27:43.743Z,2.40
2022-12-11T01:30:47.402Z,1.85
2022-12-11T01:33:53.605Z,1.85
2022-12-11T01:36:57.116Z,2.65
2022-12-11T01:40:01.656Z,2.50
2022-12-11T01:43:05.133Z,2.00
2022-12-11T01:46:08.654Z,1.95
2022-12-11T01:49:15.163Z,2.20
2022-12-11T01:52:22.011Z,2.00
2022-12-11T01:55:25.918Z,2.00
2022-12-11T01:58:33.984Z,1.80
2022-12-11T02:01:59.054Z,2.00
2022-12-11T02:05:07.459Z,2.15
2022-12-11T02:08:11.181Z,2.17
2022-12-11T02:11:21.040Z,2.28
2022-12-11T02:14:27.196Z,2.80
2022-12-11T02:17:38.842Z,2.60
2022-12-11T02:20:54.119Z,1.70
2022-12-11T02:24:30.670Z,2.33
2022-12-11T02:27:56.743Z,2.00
2022-12-11T02:31:05.899Z,1.90
2022-12-11T02:34:38.852Z,1.88
2022-12-11T02:37:46.693Z,1.80
2022-12-11T02:40:52.278Z,1.70
2022-12-11T02:43:57.645Z,2.00
2022-12-11T02:47:03.736Z,1.60
2022-12-11T02:50:12.744Z,1.75
2022-12-11T02:53:22.015Z,1.80
2022-12-11T02:56:30.811Z,1.63
2022-12-11T02:59:45.645Z,1.80
2022-12-11T03:02:49.271Z,1.73
2022-12-11T03:05:53.458Z,1.38
2022-12-11T03:08:56.968Z,1.98
2022-12-11T03:12:00.360Z,1.35
2022-12-11T03:15:08.016Z,2.00
2022-12-11T03:18:23.861Z,2.17
2022-12-11T03:21:55.694Z,1.88
2022-12-11T03:25:10.386Z,2.97
2022-12-11T03:28:19.468Z,3.13
2022-12-11T03:31:37.867Z,1.80
2022-12-11T03:34:58.076Z,1.80
2022-12-11T03:38:06.608Z,1.60
2022-12-11T03:41:10.799Z,1.40
2022-12-11T03:44:15.120Z,1.70
2022-12-11T03:47:22.714Z,2.05
2022-12-11T03:50:30.319Z,1.85
2022-12-11T03:53:36.120Z,1.63
2022-12-11T03:56:41.087Z,1.70
2022-12-11T03:59:44.476Z,2.17
2022-12-11T04:03:12.943Z,2.43
2022-12-11T04:06:17.290Z,1.58
2022-12-11T04:09:20.843Z,1.98
2022-12-11T04:12:24.408Z,1.83
2022-12-11T04:15:27.837Z,1.95
2022-12-11T04:18:49.873Z,2.20
2022-12-11T04:22:11.455Z,2.20
2022-12-11T04:25:14.839Z,2.10
2022-12-11T04:28:18.263Z,2.73
2022-12-11T04:31:23.369Z,1.88
2022-12-11T04:34:26.963Z,2.55
2022-12-11T04:37:30.497Z,1.70
2022-12-11T04:40:33.906Z,1.63
2022-12-11T04:43:37.781Z,1.50
2022-12-11T04:46:41.244Z,1.90
2022-12-11T04:49:44.926Z,1.50
2022-12-11T04:52:48.286Z,1.70
2022-12-11T04:55:51.962Z,1.85
2022-12-11T04:58:55.469Z,2.05
2022-12-11T05:01:58.880Z,1.70
2022-12-11T05:05:03.434Z,2.40
2022-12-11T05:08:06.868Z,2.30
2022-12-11T05:11:13.235Z,1.80
2022-12-11T05:14:16.718Z,1.33
2022-12-11T05:17:20.907Z,2.10
2022-12-11T05:20:24.454Z,1.70
2022-12-11T05:23:28.447Z,1.65
2022-12-11T05:26:31.816Z,1.33
2022-12-11T05:29:35.249Z,1.58
2022-12-11T05:32:38.780Z,1.00
2022-12-11T05:35:49.295Z,1.20
2022-12-11T05:38:53.792Z,1.55
2022-12-11T05:41:57.319Z,1.40
2022-12-11T05:45:00.735Z,1.00
2022-12-11T05:48:04.448Z,1.17
2022-12-11T05:51:09.509Z,1.40
2022-12-11T05:54:12.931Z,1.63
2022-12-11T05:57:16.800Z,1.43
2022-12-11T06:00:20.224Z,1.48
2022-12-11T06:03:23.689Z,1.45
2022-12-11T06:06:27.867Z,1.17
2022-12-11T06:09:31.616Z,1.30
2022-12-11T06:12:35.006Z,1.08
2022-12-11T06:15:38.427Z,1.02
2022-12-11T06:18:44.092Z,1.58
2022-12-11T06:21:49.004Z,1.47
2022-12-11T06:24:52.426Z,1.20
2022-12-11T06:27:55.819Z,2.10
2022-12-11T06:31:02.614Z,1.25
2022-12-11T06:34:06.175Z,1.50
2022-12-11T06:37:09.626Z,2.10
2022-12-11T06:40:13.179Z,1.63
2022-12-11T06:43:16.595Z,2.00
2022-12-11T06:46:21.560Z,1.48
2022-12-11T06:49:25.112Z,1.02
2022-12-11T06:52:28.826Z,1.60
2022-12-11T06:55:34.990Z,1.30
2022-12-11T06:58:39.703Z,1.48
2022-12-11T07:01:43.168Z,1.30
2022-12-11T07:04:49.321Z,1.20
2022-12-11T07:07:57.188Z,1.10
2022-12-11T07:11:09.041Z,1.52
2022-12-11T07:14:12.503Z,1.20
2022-12-11T07:17:15.994Z,1.67
2022-12-11T07:20:19.890Z,1.53
2022-12-11T07:23:23.313Z,1.10
2022-12-11T07:26:27.043Z,1.45
2022-12-11T07:29:30.436Z,1.52
2022-12-11T07:32:34.021Z,1.70
2022-12-11T07:35:37.739Z,1.40
2022-12-11T07:38:41.949Z,1.40
2022-12-11T07:41:47.079Z,1.40
2022-12-11T07:44:52.419Z,2.10
2022-12-11T07:47:55.772Z,2.78
2022-12-11T07:51:19.516Z,2.10
2022-12-11T07:54:22.930Z,2.10
2022-12-11T07:57:26.322Z,2.33
2022-12-11T08:00:29.835Z,2.22
2022-12-11T08:03:33.187Z,2.25
2022-12-11T08:06:39.561Z,2.33
2022-12-11T08:09:42.903Z,2.07
2022-12-11T08:12:46.258Z,2.00
2022-12-11T08:15:49.615Z,2.70
2022-12-11T08:18:53.174Z,2.25
2022-12-11T08:21:56.594Z,2.13
2022-12-11T08:25:00.003Z,2.28
2022-12-11T08:28:05.095Z,1.38
2022-12-11T08:31:10.123Z,2.20
2022-12-11T08:34:14.312Z,2.00
2022-12-11T08:37:17.667Z,1.58
2022-12-11T08:40:21.371Z,1.70
2022-12-11T08:43:25.262Z,1.30
2022-12-11T08:46:31.679Z,2.03
2022-12-11T08:49:35.142Z,2.33
2022-12-11T08:52:38.533Z,2.10
2022-12-11T08:55:42.324Z,1.58
2022-12-11T08:58:46.702Z,1.90
2022-12-11T09:01:50.508Z,2.28
2022-12-11T09:04:53.971Z,2.67
2022-12-11T09:07:59.376Z,1.97
2022-12-11T09:11:11.548Z,2.00
2022-12-11T09:14:16.199Z,2.20
2022-12-11T09:17:19.607Z,2.42
2022-12-11T09:20:24.409Z,2.40
2022-12-11T09:23:28.284Z,2.00
2022-12-11T09:26:32.187Z,2.40
2022-12-11T09:29:35.690Z,2.50
2022-12-11T09:32:39.697Z,1.80
2022-12-11T09:35:43.412Z,2.10
2022-12-11T09:38:47.229Z,2.83
2022-12-11T09:41:56.587Z,2.25
2022-12-11T09:45:03.109Z,2.85
2022-12-11T09:48:09.496Z,2.67
2022-12-11T09:51:19.808Z,2.50
2022-12-11T09:54:23.260Z,1.90
2022-12-11T09:58:01.019Z,2.83
2022-12-11T10:01:31.753Z,2.35
2022-12-11T10:04:56.157Z,1.92
2022-12-11T10:08:17.688Z,1.83
2022-12-11T10:11:55.894Z,1.38
2022-12-11T10:15:35.565Z,1.90
2022-12-11T10:18:39.593Z,3.25
2022-12-11T10:21:43.756Z,3.17
2022-12-11T10:25:21.515Z,3.33
2022-12-11T10:28:27.389Z,3.70
2022-12-11T10:31:57.267Z,2.08
2022-12-11T10:35:04.942Z,2.50
2022-12-11T10:38:20.097Z,2.42
2022-12-11T10:41:38.114Z,1.50
2022-12-11T10:44:41.411Z,2.05
2022-12-11T10:47:44.811Z,2.58
2022-12-11T10:51:01.111Z,2.95
2022-12-11T10:54:36.060Z,3.40
2022-12-11T10:57:40.301Z,2.73
2022-12-11T11:00:43.771Z,3.22
2022-12-11T11:04:14.823Z,2.38
2022-12-11T11:07:23.704Z,2.30
2022-12-11T11:10:27.377Z,2.40
2022-12-11T11:13:32.069Z,3.17
2022-12-11T11:16:40.527Z,2.80
2022-12-11T11:19:48.287Z,3.33
2022-12-11T11:22:55.335Z,4.10
2022-12-11T11:26:01.727Z,2.70
2022-12-11T11:29:05.788Z,3.10
2022-12-11T11:32:32.295Z,2.58
2022-12-11T11:35:36.814Z,3.00
2022-12-11T11:38:50.174Z,3.58
2022-12-11T11:41:58.366Z,3.33
2022-12-11T11:45:22.410Z,3.08
2022-12-11T11:48:48.273Z,3.17
2022-12-11T11:52:26.302Z,2.53
2022-12-11T11:55:40.003Z,2.88
2022-12-11T11:59:03.608Z,3.13
2022-12-11T12:02:16.681Z,3.20
2022-12-11T12:05:44.733Z,2.20
2022-12-11T12:09:28.901Z,2.67
2022-12-11T12:12:44.220Z,2.60
2022-12-11T12:15:54.901Z,4.00
2022-12-11T12:18:58.264Z,2.95
2022-12-11T12:22:21.578Z,3.05
2022-12-11T12:25:58.647Z,3.08
2022-12-11T12:29:13.494Z,3.90
2022-12-11T12:32:46.911Z,3.38
2022-12-11T12:35:53.098Z,2.72
2022-12-11T12:39:08.348Z,4.00
2022-12-11T12:42:42.395Z,3.03
2022-12-11T12:45:59.281Z,3.67
2022-12-11T12:49:04.268Z,4.65
2022-12-11T12:52:31.011Z,4.75
2022-12-11T12:55:36.747Z,3.05
2022-12-11T12:58:45.777Z,3.43
2022-12-11T13:01:55.318Z,3.55
2022-12-11T13:05:19.070Z,4.55
2022-12-11T13:08:28.108Z,3.85
2022-12-11T13:11:35.006Z,3.83
2022-12-11T13:14:38.485Z,4.68
2022-12-11T13:17:41.885Z,5.70
2022-12-11T13:20:51.267Z,4.03
2022-12-11T13:23:55.398Z,4.80
2022-12-11T13:27:23.062Z,4.78
2022-12-11T13:30:28.498Z,3.60
2022-12-11T13:33:33.211Z,4.60
2022-12-11T13:36:39.936Z,3.63
2022-12-11T13:39:47.689Z,5.45
2022-12-11T13:43:03.137Z,4.15
2022-12-11T13:46:11.344Z,4.27
2022-12-11T13:49:30.854Z,5.25
2022-12-11T13:52:34.675Z,6.18
2022-12-11T13:55:38.179Z,5.25
2022-12-11T13:58:42.010Z,5.23
2022-12-11T14:01:45.467Z,6.20
2022-12-11T14:04:51.878Z,5.22
2022-12-11T14:07:59.004Z,5.90
2022-12-11T14:11:03.184Z,5.70
2022-12-11T14:14:20.153Z,4.32
2022-12-11T14:17:29.803Z,3.22
2022-12-11T14:20:35.521Z,4.80
2022-12-11T14:23:39.052Z,4.77
2022-12-11T14:26:51.814Z,4.20
2022-12-11T14:29:56.127Z,4.43
2022-12-11T14:33:05.337Z,5.22
2022-12-11T14:36:10.130Z,3.80
2022-12-11T14:40:12.794Z,4.65
2022-12-11T14:43:25.274Z,4.70
2022-12-11T14:46:51.332Z,4.53
2022-12-11T14:50:03.239Z,3.85
2022-12-11T14:53:17.630Z,4.07
2022-12-11T14:56:27.692Z,4.00
2022-12-11T14:59:32.828Z,3.97
2022-12-11T15:02:37.257Z,3.50
2022-12-11T15:05:52.166Z,3.58
2022-12-11T15:08:56.298Z,3.92
2022-12-11T15:12:18.566Z,4.03
2022-12-11T15:15:22.094Z,4.05
2022-12-11T15:18:27.587Z,3.40
2022-12-11T15:21:35.298Z,4.45
2022-12-11T15:24:41.880Z,6.25
2022-12-11T15:27:45.515Z,3.47
2022-12-11T15:30:57.980Z,3.45
2022-12-11T15:34:02.500Z,2.55
2022-12-11T15:37:18.981Z,4.88
2022-12-11T15:40:25.048Z,4.45
2022-12-11T15:43:32.109Z,4.68
2022-12-11T15:46:37.051Z,3.22
2022-12-11T15:49:40.623Z,5.90
2022-12-11T15:52:44.799Z,5.20
2022-12-11T15:55:48.596Z,5.05
2022-12-11T15:58:52.021Z,4.82
2022-12-11T16:01:55.522Z,5.90
2022-12-11T16:04:59.082Z,6.20
2022-12-11T16:08:02.574Z,5.47
2022-12-11T16:11:06.326Z,6.07
2022-12-11T16:14:09.830Z,6.83
2022-12-11T16:17:15.175Z,6.00
2022-12-11T16:20:18.823Z,6.60
2022-12-11T16:23:22.447Z,3.92
2022-12-11T16:26:27.337Z,6.83
2022-12-11T16:29:35.512Z,5.95
2022-12-11T16:32:38.868Z,5.28
2022-12-11T16:35:43.062Z,6.78
2022-12-11T16:38:53.886Z,5.78
2022-12-11T16:41:58.284Z,6.78
2022-12-11T16:45:17.849Z,6.75
2022-12-11T16:48:21.732Z,4.38
2022-12-11T16:51:25.200Z,5.17
2022-12-11T16:54:28.624Z,5.10
2022-12-11T16:57:32.446Z,4.45
2022-12-11T17:00:36.102Z,4.88
2022-12-11T17:03:42.340Z,6.03
2022-12-11T17:06:46.545Z,6.10
2022-12-11T17:09:50.555Z,5.75
2022-12-11T17:12:54.183Z,5.88
2022-12-11T17:15:57.575Z,8.27
2022-12-11T17:19:03.125Z,6.68
2022-12-11T17:22:06.566Z,6.55
2022-12-11T17:25:10.651Z,6.90
2022-12-11T17:28:14.688Z,5.97
2022-12-11T17:31:20.107Z,4.78
2022-12-11T17:34:23.644Z,4.53
2022-12-11T17:37:27.110Z,5.07
2022-12-11T17:40:31.776Z,3.88
2022-12-11T17:43:35.303Z,5.88
2022-12-11T17:46:39.002Z,6.07
2022-12-11T17:49:42.896Z,4.60
2022-12-11T17:52:47.358Z,4.80
2022-12-11T17:55:52.243Z,5.15
2022-12-11T17:58:56.061Z,5.72
2022-12-11T18:01:59.593Z,5.95
2022-12-11T18:05:03.310Z,6.78
2022-12-11T18:08:07.156Z,5.07
2022-12-11T18:11:18.667Z,5.87
2022-12-11T18:14:23.503Z,6.40
2022-12-11T18:17:27.254Z,5.47
2022-12-11T18:20:33.019Z,6.55
2022-12-11T18:23:36.619Z,6.77
2022-12-11T18:26:42.977Z,6.13
2022-12-11T18:29:47.892Z,6.65
2022-12-11T18:32:52.231Z,6.30
2022-12-11T18:35:56.370Z,6.37
2022-12-11T18:39:00.340Z,6.68
2022-12-11T18:42:31.863Z,7.20
2022-12-11T18:45:27.793Z,6.55
2022-12-11T18:48:31.478Z,6.70
2022-12-11T18:51:35.230Z,6.65
2022-12-11T18:54:38.766Z,5.88
2022-12-11T18:57:42.523Z,6.23
2022-12-11T19:00:46.783Z,7.00
2022-12-11T19:03:51.578Z,6.72
2022-12-11T19:06:55.769Z,6.30
2022-12-11T19:09:59.477Z,7.23
2022-12-11T19:13:03.161Z,6.85
2022-12-11T19:16:07.204Z,7.47
2022-12-11T19:19:15.041Z,7.45
2022-12-11T19:22:18.722Z,7.43
2022-12-11T19:25:22.913Z,7.75
2022-12-11T19:28:26.811Z,7.10
2022-12-11T19:31:32.385Z,7.20
2022-12-11T19:34:38.532Z,7.97
2022-12-11T19:37:42.303Z,7.60
2022-12-11T19:40:46.102Z,7.88
2022-12-11T19:43:50.697Z,7.90
2022-12-11T19:46:54.062Z,8.10
2022-12-11T19:49:57.804Z,7.85
2022-12-11T19:53:01.473Z,9.50
2022-12-11T19:56:06.607Z,8.27
2022-12-11T19:59:15.498Z,7.30
2022-12-11T20:02:19.584Z,6.28
2022-12-11T20:05:23.969Z,8.18
2022-12-11T20:08:44.092Z,7.43
2022-12-11T20:11:48.833Z,7.72
2022-12-11T20:14:52.445Z,8.05
2022-12-11T20:18:00.931Z,7.63
2022-12-11T20:21:11.509Z,6.85
2022-12-11T20:24:15.168Z,7.28
2022-12-11T20:27:19.978Z,7.50
2022-12-11T20:30:24.745Z,7.60
2022-12-11T20:33:28.667Z,7.75
2022-12-11T20:36:32.983Z,8.25
2022-12-11T20:39:37.976Z,7.57
2022-12-11T20:42:42.276Z,8.40
2022-12-11T20:45:49.954Z,7.43
2022-12-11T20:48:56.328Z,6.65
2022-12-11T20:52:00.119Z,7.28
2022-12-11T20:55:04.306Z,7.63
2022-12-11T20:58:08.976Z,6.82
2022-12-11T21:01:19.510Z,7.78
2022-12-11T21:04:23.724Z,10.68
2022-12-11T21:07:27.351Z,7.00
2022-12-11T21:10:30.838Z,7.85
2022-12-11T21:13:36.175Z,8.15
2022-12-11T21:16:39.950Z,8.60
2022-12-11T21:19:43.456Z,7.35
2022-12-11T21:22:47.495Z,9.52
2022-12-11T21:25:52.515Z,7.20
2022-12-11T21:28:56.116Z,7.78
2022-12-11T21:32:00.588Z,7.50
2022-12-11T21:35:04.966Z,7.65
2022-12-11T21:38:08.415Z,8.07
2022-12-11T21:41:18.298Z,7.85
2022-12-11T21:47:45.567Z,8.43
2022-12-11T21:50:49.006Z,7.13
2022-12-11T21:53:53.223Z,8.35
2022-12-11T21:56:56.878Z,7.45
2022-12-11T22:00:00.644Z,7.40
2022-12-11T22:03:04.736Z,7.28
2022-12-11T22:06:08.351Z,7.32
2022-12-11T22:09:13.125Z,7.13
2022-12-11T22:12:25.788Z,7.75
2022-12-11T22:15:29.212Z,8.50
2022-12-11T22:18:32.733Z,7.00
2022-12-11T22:21:37.495Z,8.70
2022-12-11T22:24:41.203Z,8.48
2022-12-11T22:27:44.680Z,8.20
2022-12-11T22:30:48.622Z,8.40
2022-12-11T22:33:56.047Z,8.40
2022-12-11T22:36:59.460Z,7.80
2022-12-11T22:40:02.952Z,8.68
2022-12-11T22:43:06.580Z,9.18
2022-12-11T22:46:15.888Z,7.68
2022-12-11T22:49:20.420Z,8.43
2022-12-11T22:52:23.945Z,8.20
2022-12-11T22:55:27.399Z,8.60
2022-12-11T22:58:30.827Z,7.68
2022-12-11T23:01:34.765Z,8.15
2022-12-11T23:04:38.355Z,8.05
2022-12-11T23:07:41.782Z,6.88
2022-12-11T23:10:45.419Z,7.93
2022-12-11T23:13:48.801Z,7.13
2022-12-11T23:16:52.308Z,7.65
2022-12-11T23:19:56.169Z,7.53
2022-12-11T23:22:59.598Z,8.25
2022-12-11T23:26:04.557Z,8.43
2022-12-11T23:29:08.728Z,8.20
2022-12-11T23:32:12.233Z,7.47
2022-12-11T23:35:15.907Z,8.05
2022-12-11T23:38:19.433Z,8.48
2022-12-11T23:41:23.586Z,7.83
2022-12-11T23:44:26.887Z,7.53
2022-12-11T23:47:30.266Z,8.10
2022-12-11T23:50:34.273Z,8.27
2022-12-11T23:53:37.893Z,8.73
2022-12-11T23:56:41.308Z,8.45
2022-12-11T23:59:44.824Z,8.55
